CZPC

Pincher Creek Airport

Pincher Creek, , Canada
METAR CZPC 171400Z AUTO 28005KT 4SM HZ CLR 13/07 A3012 RMK SLP184 DENSITY ALT 4300FT
Observed Flight Rules
Aug-17 @ 14:00 UTC (57 minutes ago) Marginal Visual Flight Rules
Wind Visibility Clouds Conditions
280° at 5 knots 4 miles
  • Clear skies
  • Haze
Temperatures Readings
Current 13°C / 55°F
Dewpoint 7°C / 45°F
Humidity 67%
Altimeter 30.12" Hg
Pressure 1018.4 hPa
Elevation 1190
METAR CZPC 171400Z AUTO 28005KT 4SM HZ CLR 13/07 A3012 RMK SLP184 DENSITY ALT 4300FT
Observed Flight Rules
Aug-17 @ 14:00 UTC
(57 minutes ago)
MVFR
Wind Visibility
280° at 5 knots 4 miles
Clouds
  • Clear skies
Conditions
  • Haze
Temperature Dewpoint
13°C / 55°F 7°C / 45°F
Humidity Altimeter Pressure
67% 30.12" Hg 1018.4 hPa